Hlavní strana
METAR-TAF:

METAR-TAF

Letiště :

Malmö, Švédsko

zeměpisná šířka: 55-33N, zeměpisná délka: 013-22E, výška: 106 m

Aktuální stav počasí

Zpráva byla vytvořena před 26 minutami, v 13:20 UTC
Západoseverozápadní vítr 11 kt
Teplota 5°C
Vlhkost vzduchu 100%
Tlak 1033 hPa
Viditelnost: 8000 m
Zataženo ve výšce 400 ft

METAR: ESMS 011320Z 29011KT 8000 OVC004 05/05 Q1033 R17/19//95

Čas: 14:46 (13:46 UTC)

Předpověď počasí

Zpráva byla vytvořena před 23 minutami, v 13:23 UTC
Předpověď platná od 01 v 12 UTC do 02 v 12 UTC
Jihozápadní vítr 5 kt
Viditelnost: 0300 m
ve výšce 100 ft
mlha
Dočasný
od 01 v 12 UTC do 02 v 09 UTC
Viditelnost: 6000 m
Oblačno až skoro zataženo ve výšce 600 ft
Změna
od 02 v 09 UTC do 02 v 11 UTC
Viditelnost: 9000 m
Oblačno až skoro zataženo ve výšce 1500 ft

TAF: ESMS 011323Z 0112/0212 23005KT 0300 FG VV001 TEMPO 0112/0209 6000 NSW BKN006 BECMG 0209/0211 9000 NSW BKN015

Stav a předpovědi počasí z více než 4 000 letišť (zprávy METAR a TAF).

Červené a žluté tečky na mapě představují dostupné meteorologické stanice.

Když kurzor umístíte na tečku, zobrazí se název stanice.

Pak kliknutím zobrazíte stav a předpověď počasí.

Chcete-li změnit mapu, kliknutím na zelené tlačítko se znaménkem +mapu přiblížíte, kliknutím na zelené tlačítko se znaménkem – mapu oddálíte a kliknutím na zelené šipky přejdete na sousední mapy.


METAR-TAF: